Time;durP1;ratioP1;P1;durP2;ratioP2;P2;SDS_P1;SDS_P2;PMS_P1;PMS_P2;Temp;Humidity;BMP_temperature;BMP_pressure;BME280_temperature;BME280_humidity;BME280_pressure;Samples;Min_cycle;Max_cycle;Signal;HPM_P1;HPM_P2
2021/10/31 00:00:30;;;;;;;3.20;2.90;;;;;;;;;;5093192;28;20768;-84
2021/10/31 00:02:57;;;;;;;2.97;2.70;;;;;;;;;;5092238;28;20629;-82
2021/10/31 00:05:25;;;;;;;2.90;2.60;;;;;;;;;;5091517;28;20653;-84
2021/10/31 00:07:52;;;;;;;2.80;2.60;;;;;;;;;;5092384;28;20625;-83
2021/10/31 00:10:20;;;;;;;5.90;2.33;;;;;;;;;;5092772;28;21030;-83
2021/10/31 00:12:49;;;;;;;2.73;2.53;;;;;;;;;;5092593;28;20629;-83
2021/10/31 00:15:16;;;;;;;3.03;2.10;;;;;;;;;;5091397;28;20616;-83
2021/10/31 00:17:43;;;;;;;3.33;3.03;;;;;;;;;;5091165;28;20652;-83
2021/10/31 00:20:11;;;;;;;4.23;2.53;;;;;;;;;;5092977;28;20703;-83
2021/10/31 00:22:38;;;;;;;2.53;2.33;;;;;;;;;;5087851;28;20696;-83
2021/10/31 00:25:06;;;;;;;2.57;2.30;;;;;;;;;;5092566;28;20649;-84
2021/10/31 00:27:33;;;;;;;5.80;2.80;;;;;;;;;;5092129;28;20678;-84
2021/10/31 00:30:02;;;;;;;3.20;2.80;;;;;;;;;;5092360;28;20649;-84
2021/10/31 00:32:29;;;;;;;2.70;2.50;;;;;;;;;;5091436;28;20732;-84
2021/10/31 00:34:56;;;;;;;4.37;2.90;;;;;;;;;;5093195;28;20613;-84
2021/10/31 00:37:23;;;;;;;3.87;2.63;;;;;;;;;;5091756;28;20734;-84
2021/10/31 00:39:51;;;;;;;5.47;2.23;;;;;;;;;;5092202;28;20743;-83
2021/10/31 00:42:18;;;;;;;2.70;2.50;;;;;;;;;;5087733;28;20718;-83
2021/10/31 00:44:45;;;;;;;2.80;2.30;;;;;;;;;;5090807;28;20677;-83
2021/10/31 00:47:14;;;;;;;2.47;2.27;;;;;;;;;;5090844;28;20625;-84
2021/10/31 00:49:41;;;;;;;2.50;2.30;;;;;;;;;;5092123;28;20621;-83
2021/10/31 00:52:11;;;;;;;2.40;2.20;;;11.10;99.90;;;;;;5092064;28;20720;-83
2021/10/31 00:54:38;;;;;;;2.50;2.30;;;11.00;99.90;;;;;;5089770;28;20629;-84
2021/10/31 00:57:05;;;;;;;3.00;2.10;;;;;;;;;;5091573;28;20657;-84
2021/10/31 00:59:33;;;;;;;2.80;2.00;;;;;;;;;;5091325;28;20645;-83
2021/10/31 01:02:04;;;;;;;3.20;2.70;;;;;;;;;;5091197;28;20712;-83
2021/10/31 01:04:33;;;;;;;2.37;2.10;;;10.80;99.90;;;;;;5091377;28;21015;-83
2021/10/31 01:07:11;;;;;;;2.73;2.40;;;10.80;99.90;;;;;;5089792;28;21208;-84
2021/10/31 01:09:51;;;;;;;2.03;1.90;;;13.30;99.90;;;;;;5091418;28;21185;-83
2021/10/31 01:12:31;;;;;;;3.97;2.80;;;10.60;99.90;;;;;;5092112;28;21005;-83
2021/10/31 01:15:16;;;;;;;2.17;2.07;;;10.60;99.90;;;;;;5089895;28;20998;-83
2021/10/31 01:18:02;;;;;;;2.30;2.10;;;10.50;99.90;;;;;;5091543;28;20613;-83
2021/10/31 01:20:37;;;;;;;2.90;2.27;;;;;;;;;;5090414;28;20703;-84
2021/10/31 01:23:24;;;;;;;2.77;2.53;;;10.50;99.90;;;;;;5092024;28;20727;-83
2021/10/31 01:26:17;;;;;;;3.10;2.80;;;10.40;99.90;;;;;;5091241;28;20621;-83
2021/10/31 01:29:00;;;;;;;2.47;2.27;;;10.40;99.90;;;;;;5068412;28;20637;-83
2021/10/31 01:31:37;;;;;;;2.80;2.60;;;10.40;99.90;;;;;;5081394;28;20656;-83
2021/10/31 01:34:15;;;;;;;3.20;2.60;;;10.30;99.90;;;;;;5090937;28;20674;-83
2021/10/31 01:37:05;;;;;;;2.77;2.10;;;10.30;99.90;;;;;;5090306;28;20640;-83
2021/10/31 01:39:38;;;;;;;2.40;2.10;;;10.30;99.90;;;;;;5090776;28;20649;-83
2021/10/31 01:42:16;;;;;;;2.87;2.23;;;10.40;99.90;;;;;;5085299;28;20652;-83
2021/10/31 01:44:50;;;;;;;3.07;2.87;;;10.20;99.90;;;;;;5077559;28;20998;-83
2021/10/31 01:47:25;;;;;;;2.33;2.13;;;;;;;;;;5090338;28;20660;-83
2021/10/31 01:49:57;;;;;;;2.70;2.50;;;10.10;99.90;;;;;;5090598;28;20621;-83
2021/10/31 01:52:31;;;;;;;3.27;2.60;;;7.70;99.90;;;;;;5090680;28;21273;-83
2021/10/31 01:55:01;;;;;;;2.33;2.13;;;;;;;;;;5087394;28;20681;-83
2021/10/31 01:57:30;;;;;;;2.63;2.30;;;10.10;99.90;;;;;;5090055;28;21310;-83
2021/10/31 02:00:08;;;;;;;2.80;2.60;;;10.10;99.90;;;;;;5090178;28;21391;-83
2021/10/31 02:02:40;;;;;;;1.97;1.87;;;10.00;99.90;;;;;;5088640;28;20655;-83
2021/10/31 02:05:08;;;;;;;2.20;2.10;;;;;;;;;;5090378;28;20609;-83
2021/10/31 02:07:37;;;;;;;2.40;2.20;;;;;;;;;;5088670;28;21022;-83
2021/10/31 02:10:05;;;;;;;3.70;2.70;;;9.90;99.90;;;;;;5090723;28;20648;-84
2021/10/31 02:12:34;;;;;;;2.80;2.60;;;9.80;99.90;;;;;;5089824;28;20971;-83
2021/10/31 02:15:01;;;;;;;3.20;2.60;;;;;;;;;;5090807;28;20617;-83
2021/10/31 02:17:28;;;;;;;3.00;2.70;;;;;;;;;;5090208;28;20645;-83
2021/10/31 02:19:56;;;;;;;3.20;2.67;;;9.90;99.90;;;;;;5089458;28;22535;-83
2021/10/31 02:22:26;;;;;;;4.73;2.83;;;;;;;;;;5073827;28;20645;-84
2021/10/31 02:24:55;;;;;;;3.07;2.77;;;9.70;99.90;;;;;;5084104;28;20698;-83
2021/10/31 02:27:24;;;;;;;2.60;2.40;;;9.70;99.90;;;;;;5090032;28;21086;-84
2021/10/31 02:29:52;;;;;;;2.53;2.33;;;9.70;99.90;;;;;;5090364;28;20620;-83
2021/10/31 02:32:21;;;;;;;3.10;2.70;;;;;;;;;;5089959;28;20731;-84
2021/10/31 02:34:48;;;;;;;4.67;2.40;;;;;;;;;;5089733;28;20621;-84
2021/10/31 02:37:15;;;;;;;2.77;2.57;;;;;;;;;;5089235;28;20721;-84
2021/10/31 02:39:43;;;;;;;3.00;2.70;;;9.50;99.90;;;;;;5077909;28;21212;-83
2021/10/31 02:42:12;;;;;;;4.37;2.30;;;9.60;99.90;;;;;;5088739;28;20621;-84
2021/10/31 02:44:40;;;;;;;3.40;2.50;;;;;;;;;;5089883;28;20629;-83
2021/10/31 02:47:09;;;;;;;5.13;2.93;;;9.60;99.90;;;;;;5089425;28;20657;-84
2021/10/31 02:49:37;;;;;;;3.23;2.87;;;9.50;99.90;;;;;;5089866;28;20614;-82
2021/10/31 02:52:10;;;;;;;2.23;2.03;;;9.60;99.90;;;;;;5089624;28;20613;-83
2021/10/31 02:54:46;;;;;;;3.43;2.77;;;9.50;99.90;;;;;;5073570;28;20633;-83
2021/10/31 02:57:18;;;;;;;3.23;2.70;;;9.50;99.90;;;;;;5088820;28;20629;-82
2021/10/31 02:59:48;;;;;;;2.40;2.20;;;9.50;99.90;;;;;;5070177;28;20705;-84
2021/10/31 03:02:16;;;;;;;2.70;2.47;;;;;;;;;;5077790;28;20663;-83
2021/10/31 03:04:44;;;;;;;3.43;2.37;;;9.50;99.90;;;;;;5089976;28;21102;-84
2021/10/31 03:07:12;;;;;;;2.77;2.57;;;9.50;99.90;;;;;;5086413;28;20629;-83
2021/10/31 03:09:40;;;;;;;2.57;2.37;;;;;;;;;;5089863;28;20637;-83
2021/10/31 03:12:09;;;;;;;3.00;2.80;;;9.50;99.90;;;;;;5073602;28;20715;-83
2021/10/31 03:14:38;;;;;;;2.43;2.23;;;;;;;;;;5083582;28;21177;-84
2021/10/31 03:17:06;;;;;;;4.30;2.87;;;9.40;99.90;;;;;;5088959;28;20716;-83
2021/10/31 03:19:33;;;;;;;3.20;2.43;;;;;;;;;;5093226;28;20619;-83
2021/10/31 03:22:00;;;;;;;2.60;2.50;;;;;;;;;;5093665;28;20704;-84
2021/10/31 03:24:28;;;;;;;3.50;3.00;;;;;;;;;;5088457;28;20747;-83
2021/10/31 03:26:55;;;;;;;2.83;2.63;;;;;;;;;;5093505;28;20698;-83
2021/10/31 03:29:24;;;;;;;3.23;2.93;;;9.10;99.90;;;;;;5091956;28;20644;-83
2021/10/31 03:31:53;;;;;;;2.83;2.63;;;;;;;;;;5093412;28;20630;-84
2021/10/31 03:34:20;;;;;;;2.70;2.50;;;;;;;;;;5093987;28;20641;-83
2021/10/31 03:36:48;;;;;;;3.17;2.87;;;9.20;99.90;;;;;;5092652;28;20731;-82
2021/10/31 03:39:16;;;;;;;4.03;2.83;;;;;;;;;;5073366;28;20657;-83
2021/10/31 03:41:45;;;;;;;3.17;2.87;;;;;;;;;;5089393;28;20706;-83
2021/10/31 03:44:14;;;;;;;3.13;2.93;;;;;;;;;;5090238;28;20698;-82
2021/10/31 03:46:41;;;;;;;3.13;2.73;;;;;;;;;;5090285;28;20616;-83
2021/10/31 03:49:10;;;;;;;3.03;2.67;;;9.10;99.90;;;;;;5093690;28;20682;-83
2021/10/31 03:51:37;;;;;;;3.20;2.90;;;;;;;;;;5092706;28;20721;-83
2021/10/31 03:54:04;;;;;;;4.10;3.73;;;;;;;;;;5092771;28;20649;-84
2021/10/31 03:56:31;;;;;;;3.80;2.90;;;;;;;;;;5091876;28;20651;-82
2021/10/31 03:58:58;;;;;;;3.27;2.97;;;;;;;;;;5092539;28;20659;-83
2021/10/31 04:01:27;;;;;;;3.70;2.57;;;;;;;;;;5092676;28;20660;-83
2021/10/31 04:03:54;;;;;;;2.63;2.43;;;;;;;;;;5093091;28;20617;-83
2021/10/31 04:06:23;;;;;;;2.80;2.60;;;;;;;;;;5091548;28;21208;-82
2021/10/31 04:08:51;;;;;;;2.80;2.60;;;;;;;;;;5092583;28;20616;-83
2021/10/31 04:11:18;;;;;;;3.67;3.00;;;;;;;;;;5091538;28;20635;-82
2021/10/31 04:13:45;;;;;;;3.70;3.40;;;;;;;;;;5092881;28;20597;-81
2021/10/31 04:16:13;;;;;;;4.03;3.40;;;;;;;;;;5092804;28;20617;-83
2021/10/31 04:18:40;;;;;;;3.00;2.80;;;;;;;;;;5091924;28;20694;-83
2021/10/31 04:21:07;;;;;;;3.93;3.17;;;;;;;;;;5092358;28;20656;-83
2021/10/31 04:23:36;;;;;;;3.03;2.80;;;;;;;;;;5092027;28;20641;-84
2021/10/31 04:26:03;;;;;;;3.20;2.90;;;;;;;;;;5091047;28;21250;-83
2021/10/31 04:28:31;;;;;;;3.53;3.23;;;;;;;;;;5092680;28;20616;-83
2021/10/31 04:30:58;;;;;;;3.93;3.63;;;8.80;99.90;;;;;;5091122;28;20625;-83
2021/10/31 04:33:25;;;;;;;3.47;3.17;;;;;;;;;;5092289;28;20635;-84
2021/10/31 04:35:52;;;;;;;2.80;2.60;;;;;;;;;;5092340;28;21043;-84
2021/10/31 04:38:22;;;;;;;3.70;3.30;;;;;;;;;;5091688;28;20644;-83
2021/10/31 04:40:51;;;;;;;3.93;3.00;;;;;;;;;;5085133;28;20680;-83
2021/10/31 04:43:20;;;;;;;3.87;3.47;;;;;;;;;;5091904;28;20694;-84
2021/10/31 04:45:47;;;;;;;3.33;3.13;;;;;;;;;;5085662;28;20743;-84
2021/10/31 04:48:14;;;;;;;4.77;3.53;;;;;;;;;;5090148;28;20601;-83
2021/10/31 04:50:42;;;;;;;4.77;3.30;;;;;;;;;;5090979;28;20649;-83
2021/10/31 04:53:09;;;;;;;4.63;3.50;;;;;;;;;;5091610;28;20653;-84
2021/10/31 04:55:38;;;;;;;4.20;3.40;;;8.90;99.90;;;;;;5091680;28;20625;-84
2021/10/31 04:58:06;;;;;;;3.20;3.00;;;8.90;99.90;;;;;;5071913;28;20741;-84
2021/10/31 05:00:34;;;;;;;4.47;3.23;;;8.80;99.90;;;;;;5087847;28;20641;-83
2021/10/31 05:03:01;;;;;;;3.27;2.77;;;;;;;;;;5091607;28;20617;-83
2021/10/31 05:05:29;;;;;;;3.57;3.27;;;;;;;;;;5090275;28;20682;-83
2021/10/31 05:07:56;;;;;;;4.00;3.47;;;;;;;;;;5086070;28;21002;-83
2021/10/31 05:10:24;;;;;;;5.97;3.80;;;;;;;;;;5091543;28;21003;-83
2021/10/31 05:12:54;;;;;;;3.40;3.10;;;;;;;;;;5092241;28;20605;-82
2021/10/31 05:15:23;;;;;;;5.20;3.90;;;;;;;;;;5091852;28;20660;-82
2021/10/31 05:17:50;;;;;;;4.43;3.53;;;;;;;;;;5091676;28;20658;-82
2021/10/31 05:20:18;;;;;;;3.90;3.50;;;;;;;;;;5091310;28;20649;-83
2021/10/31 05:22:45;;;;;;;6.30;5.60;;;;;;;;;;5085385;28;20704;-84
2021/10/31 05:25:12;;;;;;;5.20;3.83;;;;;;;;;;5091146;28;20632;-83
2021/10/31 05:27:40;;;;;;;4.80;3.50;;;;;;;;;;5090901;28;20694;-84
2021/10/31 05:30:10;;;;;;;4.00;3.70;;;9.00;99.90;;;;;;5091086;28;20744;-83
2021/10/31 05:32:40;;;;;;;4.30;3.90;;;8.90;99.90;;;;;;5089636;28;20688;-83
2021/10/31 05:35:10;;;;;;;6.07;4.23;;;9.00;99.90;;;;;;5092412;28;20617;-83
2021/10/31 05:37:40;;;;;;;6.40;5.13;;;9.00;99.90;;;;;;5091083;28;20629;-83
2021/10/31 05:40:09;;;;;;;4.27;3.97;;;8.90;99.90;;;;;;5084945;28;20618;-83
2021/10/31 05:42:37;;;;;;;4.20;3.80;;;;;;;;;;5089986;28;20748;-83
2021/10/31 05:45:06;;;;;;;3.83;3.53;;;;;;;;;;5069474;28;20641;-84
2021/10/31 05:47:34;;;;;;;4.90;4.47;;;;;;;;;;5090354;28;21015;-83
2021/10/31 05:50:02;;;;;;;6.07;4.53;;;;;;;;;;5090913;28;20625;-83
2021/10/31 05:52:29;;;;;;;5.73;4.93;;;;;;;;;;5090778;28;20757;-83
2021/10/31 05:54:57;;;;;;;5.60;4.90;;;;;;;;;;5090495;28;20712;-83
2021/10/31 05:57:24;;;;;;;6.03;5.33;;;;;;;;;;5088960;28;20671;-85
2021/10/31 05:59:51;;;;;;;5.10;4.50;;;;;;;;;;5088795;28;21094;-84
2021/10/31 06:02:18;;;;;;;6.13;5.60;;;;;;;;;;5087515;28;21323;-84
2021/10/31 06:04:46;;;;;;;11.23;5.40;;;;;;;;;;5089666;28;20674;-84
2021/10/31 06:07:15;;;;;;;7.30;5.80;;;;;;;;;;5089418;28;20649;-83
2021/10/31 06:09:42;;;;;;;5.20;4.70;;;;;;;;;;5089912;28;20717;-84
2021/10/31 06:12:10;;;;;;;5.50;4.60;;;;;;;;;;5089922;28;20740;-84
2021/10/31 06:14:37;;;;;;;5.53;4.83;;;;;;;;;;5091154;28;21006;-83
2021/10/31 06:17:06;;;;;;;5.30;4.80;;;9.10;99.90;;;;;;5089689;28;20654;-84
2021/10/31 06:19:33;;;;;;;6.90;5.40;;;9.00;99.90;;;;;;5090703;28;20923;-83
2021/10/31 06:22:01;;;;;;;6.90;5.00;;;;;;;;;;5090118;28;20691;-84
2021/10/31 06:24:29;;;;;;;5.77;5.20;;;;;;;;;;5083179;28;21221;-84
2021/10/31 06:26:57;;;;;;;5.23;4.73;;;;;;;;;;5087954;28;20629;-84
2021/10/31 06:29:24;;;;;;;5.67;5.07;;;;;;;;;;5088411;28;20652;-84
2021/10/31 06:31:51;;;;;;;6.00;5.40;;;9.00;99.90;;;;;;5087310;28;20657;-84
2021/10/31 06:34:18;;;;;;;4.90;4.50;;;;;;;;;;5088593;28;20724;-83
2021/10/31 06:36:46;;;;;;;8.03;4.90;;;;;;;;;;5088059;28;20682;-84
2021/10/31 06:39:13;;;;;;;5.73;5.20;;;;;;;;;;5083425;28;20657;-83
2021/10/31 06:41:41;;;;;;;5.17;4.60;;;;;;;;;;5088895;28;21346;-84
2021/10/31 06:44:11;;;;;;;5.10;4.60;;;;;;;;;;5089900;28;20629;-84
2021/10/31 06:46:38;;;;;;;8.50;4.87;;;;;;;;;;5089501;28;20630;-83
2021/10/31 06:49:08;;;;;;;5.20;4.80;;;;;;;;;;5089520;28;20633;-84
2021/10/31 06:51:36;;;;;;;5.57;4.80;;;;;;;;;;5088960;28;20651;-84
2021/10/31 06:54:03;;;;;;;5.07;4.57;;;;;;;;;;5093859;28;20613;-84
2021/10/31 06:56:30;;;;;;;5.03;4.60;;;;;;;;;;5092991;28;20657;-84
2021/10/31 06:59:00;;;;;;;5.40;4.90;;;;;;;;;;5094365;28;20682;-83
2021/10/31 07:01:27;;;;;;;8.93;5.00;;;;;;;;;;5093606;28;21050;-82
2021/10/31 07:03:55;;;;;;;5.20;4.63;;;;;;;;;;5093832;28;20633;-84
2021/10/31 07:06:22;;;;;;;5.17;4.50;;;;;;;;;;5092990;28;20629;-83
2021/10/31 07:08:49;;;;;;;4.90;4.40;;;;;;;;;;5091900;28;20651;-84
2021/10/31 07:11:16;;;;;;;5.77;4.60;;;;;;;;;;5093595;28;20681;-84
2021/10/31 07:13:43;;;;;;;7.33;5.60;;;;;;;;;;5093652;28;20704;-84
2021/10/31 07:16:12;;;;;;;5.43;4.90;;;;;;;;;;5093275;28;21200;-85
2021/10/31 07:18:39;;;;;;;5.17;4.73;;;;;;;;;;5087636;28;20613;-84
2021/10/31 07:21:06;;;;;;;5.67;5.07;;;;;;;;;;5088657;28;20652;-83
2021/10/31 07:23:34;;;;;;;5.80;4.93;;;;;;;;;;5093831;28;20764;-84
2021/10/31 07:26:02;;;;;;;7.13;5.60;;;;;;;;;;5092602;28;20631;-84
2021/10/31 07:28:29;;;;;;;5.80;5.30;;;;;;;;;;5082121;28;20652;-84
2021/10/31 07:30:58;;;;;;;7.40;6.03;;;;;;;;;;5090005;28;20682;-84
2021/10/31 07:33:26;;;;;;;6.80;5.27;;;;;;;;;;5091635;28;21181;-84
2021/10/31 07:35:54;;;;;;;7.17;5.20;;;;;;;;;;5091580;28;20741;-84
2021/10/31 07:38:21;;;;;;;5.80;5.30;;;;;;;;;;5090483;28;20675;-84
2021/10/31 07:40:48;;;;;;;7.67;5.27;;;;;;;;;;5091079;28;20617;-84
2021/10/31 07:43:15;;;;;;;6.40;5.80;;;;;;;;;;5093221;28;20666;-83
2021/10/31 07:45:42;;;;;;;5.73;5.23;;;;;;;;;;5091911;28;20660;-84
2021/10/31 07:48:10;;;;;;;5.20;4.70;;;10.80;99.90;;;;;;5090949;28;20717;-84
2021/10/31 07:50:39;;;;;;;5.40;4.90;;;10.80;99.90;;;;;;5091412;28;20648;-83
2021/10/31 07:53:10;;;;;;;6.90;5.30;;;11.00;99.90;;;;;;5091566;28;20617;-83
2021/10/31 07:55:38;;;;;;;5.73;5.23;;;;;;;;;;5091501;28;20666;-83
2021/10/31 07:58:07;;;;;;;7.13;4.50;;;11.20;99.90;;;;;;5090782;28;21173;-83
2021/10/31 08:00:35;;;;;;;5.97;5.37;;;11.20;99.90;;;;;;5092042;28;20696;-84
2021/10/31 08:03:02;;;;;;;6.17;5.57;;;;;;;;;;5092938;28;20664;-83
2021/10/31 08:05:30;;;;;;;6.23;5.20;;;;;;;;;;5092133;28;20613;-83
2021/10/31 08:07:58;;;;;;;5.40;4.90;;;;;;;;;;5092135;28;20613;-84
2021/10/31 08:10:25;;;;;;;5.43;4.83;;;;;;;;;;5093002;28;20628;-84
2021/10/31 08:12:53;;;;;;;4.87;4.40;;;;;;;;;;5092424;28;20648;-83
2021/10/31 08:15:20;;;;;;;5.10;4.57;;;;;;;;;;5093014;28;20617;-84
2021/10/31 08:17:47;;;;;;;7.17;5.00;;;;;;;;;;5092352;28;20638;-84
2021/10/31 08:20:16;;;;;;;5.20;4.70;;;11.40;99.90;;;;;;5092879;28;20648;-84
2021/10/31 08:22:44;;;;;;;5.83;5.30;;;;;;;;;;5092771;28;20645;-83
2021/10/31 08:25:13;;;;;;;6.20;5.07;;;;;;;;;;5092510;28;20678;-84
2021/10/31 08:27:40;;;;;;;5.87;5.37;;;;;;;;;;5091636;28;20706;-83
2021/10/31 08:30:08;;;;;;;6.53;4.97;;;11.70;99.90;;;;;;5092767;28;20667;-83
2021/10/31 08:32:43;;;;;;;4.73;4.20;;;11.90;99.90;;;;;;5091876;28;21024;-82
2021/10/31 08:35:10;;;;;;;5.07;4.60;;;;;;;;;;5092423;28;20679;-83
2021/10/31 08:37:37;;;;;;;4.47;4.13;;;;;;;;;;5091583;28;20702;-82
2021/10/31 08:40:09;;;;;;;5.90;4.30;;;;;;;;;;5091683;28;20625;-84
2021/10/31 08:42:38;;;;;;;4.57;4.00;;;;;;;;;;5092337;28;21239;-84
2021/10/31 08:45:06;;;;;;;5.33;4.47;;;;;;;;;;5092241;28;21170;-83
2021/10/31 08:47:33;;;;;;;5.10;4.60;;;;;;;;;;5091550;28;20617;-82
2021/10/31 08:50:00;;;;;;;5.87;5.07;;;;;;;;;;5092102;28;20620;-83
2021/10/31 08:52:28;;;;;;;5.77;5.27;;;;;;;;;;5091690;28;20653;-84
2021/10/31 08:54:55;;;;;;;6.20;5.60;;;;;;;;;;5092384;28;20641;-82
2021/10/31 08:57:22;;;;;;;7.00;6.20;;;;;;;;;;5091762;28;20605;-83
2021/10/31 08:59:51;;;;;;;6.23;5.73;;;;;;;;;;5091973;28;21203;-84
2021/10/31 09:02:18;;;;;;;6.90;5.40;;;;;;;;;;5092296;28;20668;-83
2021/10/31 09:04:45;;;;;;;7.07;5.00;;;;;;;;;;5092327;28;20640;-84
2021/10/31 09:07:15;;;;;;;6.80;5.93;;;;;;;;;;5090672;28;21378;-82
2021/10/31 09:09:42;;;;;;;6.20;5.57;;;;;;;;;;5091760;28;20717;-83
2021/10/31 09:12:10;;;;;;;6.97;6.30;;;;;;;;;;5091840;28;21090;-82
2021/10/31 09:14:38;;;;;;;6.37;5.83;;;;;;;;;;5091693;28;20616;-83
2021/10/31 09:17:06;;;;;;;6.10;5.57;;;;;;;;;;5089980;28;20616;-84
2021/10/31 09:19:34;;;;;;;5.43;4.93;;;;;;;;;;5090841;28;20659;-85
2021/10/31 09:22:01;;;;;;;5.40;5.07;;;;;;;;;;5091226;28;20694;-83
2021/10/31 09:24:29;;;;;;;5.20;4.70;;;13.00;99.90;;;;;;5091516;28;20681;-83
2021/10/31 09:26:56;;;;;;;4.57;4.23;;;;;;;;;;5090801;28;20617;-84
2021/10/31 09:29:23;;;;;;;5.00;4.60;;;;;;;;;;5091453;28;20613;-83
2021/10/31 09:31:51;;;;;;;5.63;5.03;;;;;;;;;;5090413;28;20598;-84
2021/10/31 09:34:19;;;;;;;4.60;4.20;;;13.20;99.90;;;;;;5091073;28;20668;-84
2021/10/31 09:36:46;;;;;;;3.93;3.63;;;;;;;;;;5082294;28;21555;-84
2021/10/31 09:39:14;;;;;;;5.83;5.17;;;;;;;;;;5070904;28;20645;-83
2021/10/31 09:41:41;;;;;;;6.00;4.40;;;;;;;;;;5070751;28;21059;-83
2021/10/31 09:44:17;;;;;;;4.70;4.30;;;;;;;;;;5070831;28;20729;-84
2021/10/31 09:46:44;;;;;;;5.83;4.70;;;13.40;99.90;;;;;;5069654;28;20618;-84
2021/10/31 09:49:12;;;;;;;3.90;3.60;;;;;;;;;;5070723;28;20733;-84
2021/10/31 09:51:45;;;;;;;5.00;4.50;;;13.40;99.90;;;;;;5070591;28;20671;-83
2021/10/31 09:54:12;;;;;;;4.57;4.17;;;13.60;99.90;;;;;;5070710;28;20624;-84
2021/10/31 09:56:40;;;;;;;5.20;4.80;;;13.60;99.90;;;;;;5068131;28;20633;-85
2021/10/31 09:59:11;;;;;;;4.47;4.07;;;13.60;99.90;;;;;;5079891;28;21189;-83
2021/10/31 10:01:52;;;;;;;4.20;3.90;;;13.70;99.90;;;;;;5089936;28;20621;-86
2021/10/31 10:04:26;;;;;;;4.90;4.40;;;;;;;;;;5050420;28;20739;-84
2021/10/31 10:06:55;;;;;;;6.70;4.07;;;13.90;99.90;;;;;;5051774;28;20717;-83
2021/10/31 10:09:23;;;;;;;3.53;3.23;;;;;;;;;;5070260;28;20618;-85
2021/10/31 10:11:50;;;;;;;5.70;3.43;;;14.00;99.90;;;;;;5070120;28;21178;-85
2021/10/31 10:14:23;;;;;;;3.17;2.97;;;14.10;99.90;;;;;;5070384;28;20729;-84
2021/10/31 10:16:50;;;;;;;3.70;3.10;;;;;;;;;;5069894;28;20624;-85
2021/10/31 10:19:20;;;;;;;3.10;2.80;;;14.30;99.90;;;;;;5070178;28;20656;-85
2021/10/31 10:21:56;;;;;;;2.40;2.20;;;;;;;;;;5070083;28;20618;-83
2021/10/31 10:24:24;;;;;;;3.67;3.40;;;;;;;;;;5070229;28;21085;-85
2021/10/31 10:26:55;;;;;;;3.00;2.70;;;14.50;99.90;;;;;;5069393;28;20610;-86
2021/10/31 10:29:24;;;;;;;3.17;2.97;;;;;;;;;;5070285;28;20723;-86
2021/10/31 10:31:53;;;;;;;3.20;3.00;;;14.50;99.90;;;;;;5069278;28;20747;-85
2021/10/31 10:34:33;;;;;;;4.13;3.27;;;14.30;99.90;;;;;;5070363;28;20637;-84
2021/10/31 10:37:07;;;;;;;3.20;2.93;;;14.70;99.90;;;;;;5069461;28;20640;-83
2021/10/31 10:39:37;;;;;;;3.40;2.80;;;14.90;99.90;;;;;;5070074;28;20637;-82
2021/10/31 10:42:04;;;;;;;3.07;2.87;;;;;;;;;;5070073;28;20611;-83
2021/10/31 10:44:32;;;;;;;4.67;3.40;;;15.00;99.90;;;;;;5070201;28;21050;-85
2021/10/31 10:47:01;;;;;;;3.23;2.97;;;15.00;99.90;;;;;;5069014;28;20668;-83
2021/10/31 10:49:33;;;;;;;3.60;3.17;;;15.10;99.70;;;;;;5069952;28;20622;-85
2021/10/31 10:52:21;;;;;;;2.33;2.20;;;15.20;99.10;;;;;;5073325;28;20740;-86
2021/10/31 10:54:51;;;;;;;2.93;2.67;;;15.30;98.80;;;;;;5061611;28;20676;-83
2021/10/31 10:57:18;;;;;;;3.33;2.83;;;15.30;98.20;;;;;;5079371;28;20671;-84
2021/10/31 10:59:51;;;;;;;2.37;2.17;;;15.50;97.40;;;;;;5073413;28;20614;-84
2021/10/31 11:02:19;;;;;;;2.30;2.10;;;15.50;96.80;;;;;;5079599;28;20624;-85
2021/10/31 11:04:50;;;;;;;2.20;2.00;;;15.70;97.80;;;;;;5079468;28;20669;-85
2021/10/31 11:07:19;;;;;;;3.13;2.50;;;;;;;;;;5070871;28;20638;-85
2021/10/31 11:09:49;;;;;;;2.20;1.97;;;15.80;97.70;;;;;;5082718;28;20655;-85
2021/10/31 11:12:23;;;;;;;2.70;2.50;;;;;;;;;;5086559;28;21199;-84
2021/10/31 11:14:50;;;;;;;2.43;2.20;;;;;;;;;;5073261;28;20628;-84
2021/10/31 11:17:18;;;;;;;2.07;1.93;;;;;;;;;;5083084;28;20727;-86
2021/10/31 11:19:45;;;;;;;2.37;2.17;;;;;;;;;;5090090;28;20669;-86
2021/10/31 11:22:13;;;;;;;3.13;2.20;;;;;;;;;;5074025;28;20626;-85
2021/10/31 11:24:42;;;;;;;2.70;2.07;;;16.20;93.90;;;;;;5088653;28;20653;-85
2021/10/31 11:27:10;;;;;;;2.30;2.10;;;16.20;92.70;;;;;;5083813;28;20684;-86
2021/10/31 11:29:37;;;;;;;2.00;1.90;;;;;;;;;;5082426;28;20653;-85
2021/10/31 11:32:05;;;;;;;2.67;2.47;;;;;;;;;;5060393;28;20658;-87
2021/10/31 11:34:32;;;;;;;2.00;1.80;;;16.40;93.00;;;;;;5074481;28;20679;-85
2021/10/31 11:37:00;;;;;;;2.50;2.30;;;;;;;;;;5078314;28;21255;-85
2021/10/31 11:39:31;;;;;;;2.00;1.57;;;16.50;93.50;;;;;;5078078;28;21015;-86
2021/10/31 11:42:00;;;;;;;3.20;2.70;;;16.60;93.40;;;;;;5066802;28;20640;-85
2021/10/31 11:44:30;;;;;;;1.87;1.50;;;16.70;92.70;;;;;;5079908;28;20661;-85
2021/10/31 11:46:58;;;;;;;2.60;2.40;;;;;;;;;;5077921;28;20610;-85
2021/10/31 11:49:25;;;;;;;2.83;2.63;;;;;;;;;;5079797;28;21072;-84
2021/10/31 11:51:54;;;;;;;1.80;1.70;;;;;;;;;;5062212;28;20626;-85
2021/10/31 11:54:21;;;;;;;4.63;2.07;;;16.90;90.80;;;;;;5088682;28;21205;-85
2021/10/31 11:56:52;;;;;;;2.30;2.00;;;;;;;;;;5085272;28;20621;-87
2021/10/31 11:59:21;;;;;;;2.60;2.23;;;;;;;;;;5093726;28;20628;-86
2021/10/31 12:01:50;;;;;;;1.97;1.87;;;17.20;89.80;;;;;;5069874;28;21027;-84
2021/10/31 12:04:42;;;;;;;2.43;2.27;;;17.40;99.90;;;;;;5051952;28;20666;-85
2021/10/31 12:07:10;;;;;;;2.70;2.43;;;;;;;;;;5054898;28;20630;-83
2021/10/31 12:09:38;;;;;;;2.00;1.90;;;17.30;87.40;;;;;;5071790;28;20625;-86
2021/10/31 12:12:16;;;;;;;1.80;1.70;;;17.30;90.50;;;;;;5058232;28;20716;-85
2021/10/31 12:14:47;;;;;;;2.30;2.13;;;;;;;;;;5051652;28;20627;-83
2021/10/31 12:17:15;;;;;;;3.13;1.90;;;;;;;;;;5051866;28;20630;-86
2021/10/31 12:19:43;;;;;;;2.20;2.10;;;17.40;87.00;;;;;;5052795;28;20615;-86
2021/10/31 12:22:12;;;;;;;2.80;2.60;;;17.50;85.80;;;;;;5065773;28;20617;-84
2021/10/31 12:24:41;;;;;;;2.50;2.30;;;17.50;87.10;;;;;;5072245;28;20703;-83
2021/10/31 12:27:13;;;;;;;5.90;2.00;;;17.40;84.40;;;;;;5071217;28;20681;-85
2021/10/31 12:29:46;;;;;;;2.07;1.87;;;;;;;;;;5072719;28;20624;-83
2021/10/31 12:32:18;;;;;;;3.40;2.47;;;17.40;84.70;;;;;;5089594;28;21053;-85
2021/10/31 12:34:47;;;;;;;1.70;1.60;;;17.40;85.30;;;;;;5052179;28;20666;-85
2021/10/31 12:37:26;;;;;;;1.60;1.50;;;17.40;83.30;;;;;;5051409;28;20664;-86
2021/10/31 12:39:59;;;;;;;3.30;2.40;;;17.40;86.00;;;;;;5052105;28;20680;-84
2021/10/31 12:42:28;;;;;;;2.67;2.47;;;17.70;83.20;;;;;;5052391;28;20726;-85
2021/10/31 12:44:58;;;;;;;2.17;1.97;;;17.60;84.70;;;;;;5051993;28;20773;-85
2021/10/31 12:47:37;;;;;;;2.10;1.90;;;17.50;85.20;;;;;;5051864;28;20633;-84
2021/10/31 12:50:17;;;;;;;2.40;2.23;;;17.70;99.90;;;;;;5051181;28;21177;-84
2021/10/31 12:52:45;;;;;;;2.27;2.00;;;17.50;85.10;;;;;;5069201;28;21245;-84
2021/10/31 12:55:14;;;;;;;3.20;2.03;;;17.60;84.60;;;;;;5071666;28;20606;-83
2021/10/31 12:57:51;;;;;;;6.10;1.83;;;17.70;82.60;;;;;;5071276;28;20654;-84
2021/10/31 13:00:18;;;;;;;2.40;2.07;;;;;;;;;;5071299;28;20708;-84
2021/10/31 13:02:50;;;;;;;2.63;2.43;;;17.60;83.50;;;;;;5054402;28;20627;-84
2021/10/31 13:05:22;;;;;;;3.10;2.20;;;;;;;;;;5051665;28;20663;-84
2021/10/31 13:07:50;;;;;;;3.03;2.23;;;17.50;85.00;;;;;;5060680;28;21188;-86
2021/10/31 13:10:20;;;;;;;2.57;2.37;;;17.50;84.90;;;;;;5071865;28;20666;-85
2021/10/31 13:12:48;;;;;;;3.67;2.17;;;17.50;85.80;;;;;;5053446;28;21175;-84
2021/10/31 13:15:20;;;;;;;1.80;1.70;;;17.50;85.90;;;;;;5051768;28;20664;-84
2021/10/31 13:17:51;;;;;;;2.60;2.40;;;17.60;85.10;;;;;;5051662;28;20623;-84
2021/10/31 13:20:28;;;;;;;2.50;2.30;;;17.80;79.70;;;;;;5051723;28;20650;-85
2021/10/31 13:23:00;;;;;;;2.60;2.40;;;17.70;83.00;;;;;;5069358;28;20614;-84
2021/10/31 13:25:40;;;;;;;2.23;2.10;;;17.70;84.50;;;;;;5068153;28;20672;-84
2021/10/31 13:28:14;;;;;;;2.23;2.03;;;;;;;;;;5071046;28;21193;-84
2021/10/31 13:30:55;;;;;;;2.53;2.33;;;;;;;;;;5071078;28;21154;-84
2021/10/31 13:33:29;;;;;;;2.20;2.00;;;;;;;;;;5051341;28;20621;-83
2021/10/31 13:36:04;;;;;;;2.73;2.53;;;;;;;;;;5050722;28;20725;-85
2021/10/31 13:38:45;;;;;;;2.60;2.40;;;;;;;;;;5043007;28;20630;-85
2021/10/31 13:41:12;;;;;;;4.13;2.27;;;;;;;;;;5058936;28;20625;-84
2021/10/31 13:43:39;;;;;;;2.30;2.10;;;;;;;;;;5071029;28;20689;-83
2021/10/31 13:46:07;;;;;;;3.97;3.00;;;;;;;;;;5069231;28;21019;-82
2021/10/31 13:49:00;;;;;;;5.73;2.10;;;17.50;82.20;;;;;;5068709;28;20679;-85
2021/10/31 13:51:27;;;;;;;2.10;1.90;;;17.60;81.70;;;;;;5051201;28;20646;-84
2021/10/31 13:53:55;;;;;;;2.63;2.00;;;;;;;;;;5051124;28;20626;-85
2021/10/31 13:56:22;;;;;;;1.93;1.83;;;;;;;;;;5050731;28;20681;-83
2021/10/31 13:58:50;;;;;;;2.07;1.93;;;;;;;;;;5052796;28;20725;-86
2021/10/31 14:01:30;;;;;;;1.87;1.77;;;17.40;82.30;;;;;;5070607;28;20606;-84
2021/10/31 14:04:07;;;;;;;3.67;1.93;;;;;;;;;;5070715;28;20654;-85
2021/10/31 14:06:35;;;;;;;3.60;2.10;;;;;;;;;;5070609;28;20629;-85
2021/10/31 14:09:03;;;;;;;2.67;2.43;;;17.50;80.70;;;;;;5065134;28;20646;-84